Greenbrier Valley Airport
KLWB : rendu visible

Aérodrome :











RETROUVEZ-NOUS SUR...

 
LOGIN :

S'inscrire | Disclaimer

   EN    FR    IT 

 









Légende :    VFR   VFR Marginal   IFR   IFR Intensif   IFR Très Intensif
Visi : 
Plafond : 
>= 8 km
>= 3000ft
5 à 8 km
1000 à 3000 ft
1500m à 5 km
500 à 1000 ft
800 à 1500m
200 à 500 ft
< 800m
< 200 ft
Symboles :   Orages  Brouillard  Fortes neiges  Fortes précipitations  Vent > 20 kt







- Altitude de l'aérodrome : 2302 ft


KLWB - Greenbrier Valley

DERNIER METAR :
  • 222230Z AUTO 33003KT 10SM CLR 21/04 A3015 RMK AO2 T02080037

METARs EXPIRÉS :
  • 222210Z AUTO 01006KT 10SM CLR 21/03 A3014 RMK AO2 T02100028
  • 222155Z AUTO 32006KT 10SM CLR 21/04 A3014 RMK AO2 T02110040
  • 222135Z AUTO 36008KT 10SM CLR 21/03 A3014 RMK AO2 T02140031
  • 222115Z AUTO 36008KT 10SM CLR 21/03 A3014 RMK AO2 T02140030
  • 222050Z AUTO 34008G14KT 300V010 10SM CLR 21/03 A3014 RMK AO2 T02140034
  • 222035Z AUTO 01008KT 10SM CLR 21/03 A3014 RMK AO2 T02120033
  • 222015Z AUTO 32005KT 10SM CLR 21/03 A3014 RMK AO2 T02110034
  • 221955Z AUTO 30005KT 10SM CLR 21/03 A3015 RMK AO2 T02060026

TAF KLWB
Valide du 22 à 19h jusqu'au 23 à 18h UTC


221923Z 2219/2318 32008KT P6SM SKC
FM230900 00000KT P6SM FEW150
FM231600 25007KT P6SM FEW200
FIR KZDC / Amérique du Nord



MET'MAP, la Météo Aéronautique d'un coup d'oeil ! - Copyright ORBIFLY Décembre 2007 - Disclaimer

ORBIFLY MET'MAP TEAM :

Programmation & Développement : Alexandra Zaïnal
Conception & Développement : Baudouin d'Aumeries
Co-Programmation & Développement : Marc-Olivier Méhu
Soutien technique & logistique : Manuel Goepfert

Contact : metmap@orbifly.com




SOURCES & CREDITS :

   NOAA       Earth
Advisory